FranceFixed distance
La Grande Course des Templiers
25 Oct1998
Distance
65km
Finishers
1,1461,070 men76 women
Winning time
5:50:27h
Median pace
7.08km/h
Pace distribution
1,146 finishers · 5.63–11.13 km/h · mean 7.26
Every finisher ran the same 65 km course, so these paces are directly comparable.
Histogram of finisher pace. 1,146 finishers ranged from 5.63 to 11.13 kilometres per hour, with a mean of 7.26 and a median of 7.08. The busiest band is 6.5 to 7.0 kilometres per hour, with 261 finishers.
Results
Ranks 1,101–1,146 of 1,146
| Rank | Runner | Time | Pace | Cat. | Placing |
|---|---|---|---|---|---|
| 1101 | Marcelin, AbelFranceMan | 11:08:39h | 5.83 | — | 1034th M |
| 1102 | Thevenin, NathalieFranceWoman | 11:08:56h | 5.83 | — | 68th F |
| 1103 | Rouillon, Anne-FlorenceFranceWoman | 11:09:15h | 5.83 | — | 69th F |
| 1104 | Travert, MichelFranceMan | 11:10:31h | 5.82 | — | 1035th M |
| 1105 | Wurlinger, LucFranceMan | 11:10:32h | 5.82 | — | 1036th M |
| 1106 | Ferrari, JacquelineFranceWoman | 11:10:38h | 5.82 | — | 70th F |
| 1107 | Bessiere, JosianeFranceWoman | 11:11:24h | 5.81 | W50 | 71st F · 4th W50 |
| 1108 | Vendewoorre, AlainFranceMan | 11:12:18h | 5.80 | M23 | 1037th M · 147th M23 |
| 1109 | Coulon, ArnaudFranceMan | 11:12:27h | 5.80 | M23 | 1038th M · 148th M23 |
| 1110 | Fransoret, GuyFranceMan | 11:12:31h | 5.80 | — | 1039th M |
| 1111 | Beaudinot, PierreFranceMan | 11:13:13h | 5.79 | M40 | 1040th M · 153rd M40 |
| 1112 | Deleflie, Jean-LucFranceMan | 11:13:13h | 5.79 | — | 1040th M |
| 1113 | Bonnes, YvesFranceMan | 11:13:17h | 5.79 | — | 1042nd M |
| 1114 | Charvet, AlainFranceMan | 11:13:18h | 5.79 | M45 | 1043rd M · 107th M45 |
| 1115 | Noyer, LaurentFranceMan | 11:15:04h | 5.78 | — | 1044th M |
| 1116 | Crosse, JeanFranceMan | 11:15:31h | 5.77 | M65 | 1045th M · 2nd M65 |
| 1117 | Thomas, MichelFranceMan | 11:15:32h | 5.77 | M35 | 1046th M · 157th M35 |
| 1118 | Puerta, LaurenceFranceWoman | 11:15:33h | 5.77 | W55 | 72nd F · 2nd W55 |
| 1119 | Thiebault, LucFranceMan | 11:16:10h | 5.77 | — | 1047th M |
| 1120 | Biron, PhilippeFranceMan | 11:16:10h | 5.77 | — | 1047th M |
| 1121 | Herredos, AngelFranceMan | 11:16:11h | 5.77 | — | 1049th M |
| 1122 | Rat, PhilippeFranceMan | 11:16:11h | 5.77 | M40 | 1049th M · 154th M40 |
| 1123 | Tarrusson, BrigitteFranceWoman | 11:16:11h | 5.77 | W40 | 73rd F · 10th W40 |
| 1124 | Juan, ChristopheFranceMan | 11:17:21h | 5.76 | — | 1051st M |
| 1125 | Pennacchi, ReneFranceMan | 11:19:43h | 5.74 | M55 | 1052nd M · 16th M55 |
| 1126 | Renaudo, AndreFranceMan | 11:23:27h | 5.71 | M60 | 1053rd M · 7th M60 |
| 1127 | Moreau, YvonFranceMan | 11:23:29h | 5.71 | M40 | 1054th M · 155th M40 |
| 1128 | Sastre, PatrickFranceMan | 11:23:31h | 5.71 | — | 1055th M |
| 1129 | Greco, AlainFranceMan | 11:24:23h | 5.70 | — | 1056th M |
| 1130 | Sera, BrunoFranceMan | 11:24:45h | 5.70 | — | 1057th M |
| 1131 | Taxil, JacquesFranceMan | 11:24:51h | 5.70 | M23 | 1058th M · 149th M23 |
| 1132 | Batistan, MarcFranceMan | 11:25:03h | 5.69 | — | 1059th M |
| 1133 | Paul, RobertFranceMan | 11:25:04h | 5.69 | M45 | 1060th M · 108th M45 |
| 1134 | Corvi, AlainFranceMan | 11:25:25h | 5.69 | — | 1061st M |
| 1135 | Amadieu, BrigitteFranceWoman | 11:25:39h | 5.69 | — | 74th F |
| 1136 | Chipaux, Anne-MarieFranceWoman | 11:27:34h | 5.67 | W45 | 75th F · 7th W45 |
| 1137 | Deniaud, BernardFranceMan | 11:31:10h | 5.64 | M45 | 1062nd M · 109th M45 |
| 1138 | Campion, PascalFranceMan | 11:31:16h | 5.64 | — | 1063rd M |
| 1139 | Merienne, EricFranceMan | 11:31:17h | 5.64 | M23 | 1064th M · 150th M23 |
| 1140 | de Stefani, FrancisFranceMan | 11:31:21h | 5.64 | M50 | 1065th M · 45th M50 |
| 1141 | Dormois, Marie-ChristineFranceWoman | 11:31:36h | 5.64 | — | 76th F |
| 1142 | Picard, MichelFranceMan | 11:31:36h | 5.64 | M40 | 1066th M · 156th M40 |
| 1143 | Fleuris, JohnyFranceMan | 11:31:37h | 5.64 | M40 | 1067th M · 157th M40 |
| 1144 | Caplanne, Jean-LucFranceMan | 11:31:42h | 5.64 | — | 1068th M |
| 1145 | Templet, HuguesFranceMan | 11:32:40h | 5.63 | — | 1069th M |
| 1146 | Mede, FrancoisFranceMan | 11:32:40h | 5.63 | M40 | 1069th M · 158th M40 |
- 1101Marcelin, AbelFranceMan1034th MTime11:08:39hPace5.83
- 1102Thevenin, NathalieFranceWoman68th FTime11:08:56hPace5.83
- 1103Rouillon, Anne-FlorenceFranceWoman69th FTime11:09:15hPace5.83
- 1104Travert, MichelFranceMan1035th MTime11:10:31hPace5.82
- 1105Wurlinger, LucFranceMan1036th MTime11:10:32hPace5.82
- 1106Ferrari, JacquelineFranceWoman70th FTime11:10:38hPace5.82
- 1107Bessiere, JosianeFranceWoman71st F · 4th W50Time11:11:24hPace5.81Cat.W50
- 1108Vendewoorre, AlainFranceMan1037th M · 147th M23Time11:12:18hPace5.80Cat.M23
- 1109Coulon, ArnaudFranceMan1038th M · 148th M23Time11:12:27hPace5.80Cat.M23
- 1110Fransoret, GuyFranceMan1039th MTime11:12:31hPace5.80
- 1111Beaudinot, PierreFranceMan1040th M · 153rd M40Time11:13:13hPace5.79Cat.M40
- 1112Deleflie, Jean-LucFranceMan1040th MTime11:13:13hPace5.79
- 1113Bonnes, YvesFranceMan1042nd MTime11:13:17hPace5.79
- 1114Charvet, AlainFranceMan1043rd M · 107th M45Time11:13:18hPace5.79Cat.M45
- 1115Noyer, LaurentFranceMan1044th MTime11:15:04hPace5.78
- 1116Crosse, JeanFranceMan1045th M · 2nd M65Time11:15:31hPace5.77Cat.M65
- 1117Thomas, MichelFranceMan1046th M · 157th M35Time11:15:32hPace5.77Cat.M35
- 1118Puerta, LaurenceFranceWoman72nd F · 2nd W55Time11:15:33hPace5.77Cat.W55
- 1119Thiebault, LucFranceMan1047th MTime11:16:10hPace5.77
- 1120Biron, PhilippeFranceMan1047th MTime11:16:10hPace5.77
- 1121Herredos, AngelFranceMan1049th MTime11:16:11hPace5.77
- 1122Rat, PhilippeFranceMan1049th M · 154th M40Time11:16:11hPace5.77Cat.M40
- 1123Tarrusson, BrigitteFranceWoman73rd F · 10th W40Time11:16:11hPace5.77Cat.W40
- 1124Juan, ChristopheFranceMan1051st MTime11:17:21hPace5.76
- 1125Pennacchi, ReneFranceMan1052nd M · 16th M55Time11:19:43hPace5.74Cat.M55
- 1126Renaudo, AndreFranceMan1053rd M · 7th M60Time11:23:27hPace5.71Cat.M60
- 1127Moreau, YvonFranceMan1054th M · 155th M40Time11:23:29hPace5.71Cat.M40
- 1128Sastre, PatrickFranceMan1055th MTime11:23:31hPace5.71
- 1129Greco, AlainFranceMan1056th MTime11:24:23hPace5.70
- 1130Sera, BrunoFranceMan1057th MTime11:24:45hPace5.70
- 1131Taxil, JacquesFranceMan1058th M · 149th M23Time11:24:51hPace5.70Cat.M23
- 1132Batistan, MarcFranceMan1059th MTime11:25:03hPace5.69
- 1133Paul, RobertFranceMan1060th M · 108th M45Time11:25:04hPace5.69Cat.M45
- 1134Corvi, AlainFranceMan1061st MTime11:25:25hPace5.69
- 1135Amadieu, BrigitteFranceWoman74th FTime11:25:39hPace5.69
- 1136Chipaux, Anne-MarieFranceWoman75th F · 7th W45Time11:27:34hPace5.67Cat.W45
- 1137Deniaud, BernardFranceMan1062nd M · 109th M45Time11:31:10hPace5.64Cat.M45
- 1138Campion, PascalFranceMan1063rd MTime11:31:16hPace5.64
- 1139Merienne, EricFranceMan1064th M · 150th M23Time11:31:17hPace5.64Cat.M23
- 1140de Stefani, FrancisFranceMan1065th M · 45th M50Time11:31:21hPace5.64Cat.M50
- 1141Dormois, Marie-ChristineFranceWoman76th FTime11:31:36hPace5.64
- 1142Picard, MichelFranceMan1066th M · 156th M40Time11:31:36hPace5.64Cat.M40
- 1143Fleuris, JohnyFranceMan1067th M · 157th M40Time11:31:37hPace5.64Cat.M40
- 1144Caplanne, Jean-LucFranceMan1068th MTime11:31:42hPace5.64
- 1145Templet, HuguesFranceMan1069th MTime11:32:40hPace5.63
- 1146Mede, FrancoisFranceMan1069th M · 158th M40Time11:32:40hPace5.63Cat.M40
Showing ranks 1,101–1,146 of 1,146